createdAt,value
2023-02-11T00:01:19.479Z,39.57
2023-02-11T00:03:46.469Z,34.50
2023-02-11T00:06:13.355Z,37.33
2023-02-11T00:08:40.677Z,39.00
2023-02-11T00:11:08.006Z,39.63
2023-02-11T00:13:34.853Z,39.93
2023-02-11T00:16:07.186Z,35.90
2023-02-11T00:18:34.166Z,38.73
2023-02-11T00:21:00.970Z,38.20
2023-02-11T00:23:27.923Z,40.50
2023-02-11T00:25:54.761Z,41.97
2023-02-11T00:28:21.578Z,41.40
2023-02-11T00:30:55.425Z,42.40
2023-02-11T00:33:22.274Z,41.33
2023-02-11T00:35:50.074Z,36.33
2023-02-11T00:38:17.196Z,41.03
2023-02-11T00:40:44.111Z,35.73
2023-02-11T00:43:10.851Z,37.93
2023-02-11T00:45:37.686Z,37.53
2023-02-11T00:48:04.530Z,39.33
2023-02-11T00:50:31.475Z,37.10
2023-02-11T00:52:58.219Z,41.17
2023-02-11T00:55:25.064Z,39.93
2023-02-11T00:57:52.343Z,41.43
2023-02-11T01:00:19.302Z,49.17
2023-02-11T01:02:46.118Z,41.93
2023-02-11T01:05:12.912Z,42.10
2023-02-11T01:07:39.686Z,41.30
2023-02-11T01:10:06.654Z,40.20
2023-02-11T01:12:36.187Z,38.20
2023-02-11T01:15:05.366Z,39.23
2023-02-11T01:17:32.209Z,42.90
2023-02-11T01:19:59.072Z,45.13
2023-02-11T01:22:26.019Z,39.77
2023-02-11T01:24:52.830Z,40.07
2023-02-11T01:27:19.600Z,39.77
2023-02-11T01:29:46.540Z,40.23
2023-02-11T01:32:13.377Z,40.97
2023-02-11T01:34:40.290Z,40.03
2023-02-11T01:37:07.087Z,43.10
2023-02-11T01:39:34.901Z,41.67
2023-02-11T01:42:01.893Z,38.93
2023-02-11T01:44:35.765Z,43.37
2023-02-11T01:47:04.915Z,41.70
2023-02-11T01:49:36.348Z,39.67
2023-02-11T01:52:13.072Z,41.83
2023-02-11T01:55:06.237Z,44.53
2023-02-11T01:57:37.227Z,40.33
2023-02-11T02:00:12.946Z,38.63
2023-02-11T02:02:54.923Z,39.20
2023-02-11T02:05:28.634Z,38.40
2023-02-11T02:08:32.320Z,39.57
2023-02-11T02:11:01.039Z,36.20
2023-02-11T02:13:31.498Z,39.70
2023-02-11T02:16:01.577Z,39.37
2023-02-11T02:19:05.996Z,40.33
2023-02-11T02:22:02.184Z,36.77
2023-02-11T02:24:43.697Z,36.73
2023-02-11T02:27:13.343Z,35.67
2023-02-11T02:29:52.178Z,35.83
2023-02-11T02:32:33.864Z,32.83
2023-02-11T02:35:24.531Z,35.17
2023-02-11T02:38:01.404Z,37.00
2023-02-11T02:40:37.332Z,36.87
2023-02-11T02:43:05.168Z,34.20
2023-02-11T02:45:33.181Z,34.43
2023-02-11T02:48:00.806Z,36.23
2023-02-11T02:50:31.832Z,38.37
2023-02-11T02:53:29.838Z,36.00
2023-02-11T02:56:17.566Z,38.70
2023-02-11T02:59:18.005Z,39.20
2023-02-11T03:01:54.362Z,39.87
2023-02-11T03:04:35.965Z,32.93
2023-02-11T03:07:32.914Z,38.53
2023-02-11T03:10:10.649Z,34.30
2023-02-11T03:12:39.605Z,36.33
2023-02-11T03:15:07.372Z,37.27
2023-02-11T03:17:36.712Z,36.97
2023-02-11T03:20:07.026Z,40.67
2023-02-11T03:22:40.561Z,35.83
2023-02-11T03:25:07.989Z,38.37
2023-02-11T03:27:43.698Z,35.73
2023-02-11T03:30:18.577Z,34.87
2023-02-11T03:33:27.611Z,34.47
2023-02-11T03:36:00.894Z,37.43
2023-02-11T03:38:35.558Z,38.17
2023-02-11T03:41:05.500Z,39.60
2023-02-11T03:43:44.274Z,34.90
2023-02-11T03:46:13.886Z,37.83
2023-02-11T03:48:45.078Z,39.67
2023-02-11T03:51:13.252Z,37.30
2023-02-11T03:53:43.282Z,37.10
2023-02-11T03:56:15.024Z,35.93
2023-02-11T03:58:43.306Z,37.00
2023-02-11T04:01:10.279Z,34.53
2023-02-11T04:03:37.100Z,37.67
2023-02-11T04:06:04.009Z,36.97
2023-02-11T04:08:32.111Z,32.67
2023-02-11T04:10:59.197Z,35.63
2023-02-11T04:13:26.317Z,38.50
2023-02-11T04:15:53.418Z,36.27
2023-02-11T04:18:20.507Z,38.83
2023-02-11T04:20:48.309Z,36.33
2023-02-11T04:23:15.019Z,37.83
2023-02-11T04:25:43.069Z,39.17
2023-02-11T04:28:10.029Z,34.40
2023-02-11T04:30:36.858Z,37.50
2023-02-11T04:33:03.748Z,34.07
2023-02-11T04:35:30.442Z,36.47
2023-02-11T04:37:57.270Z,36.83
2023-02-11T04:40:23.977Z,36.40
2023-02-11T04:42:50.661Z,33.40
2023-02-11T04:45:17.421Z,34.90
2023-02-11T04:47:44.142Z,32.67
2023-02-11T04:50:11.005Z,36.57
2023-02-11T04:52:37.776Z,33.63
2023-02-11T04:55:07.255Z,34.50
2023-02-11T04:57:33.997Z,36.37
2023-02-11T05:00:00.770Z,35.27
2023-02-11T05:02:27.655Z,34.73
2023-02-11T05:04:54.428Z,35.87
2023-02-11T05:07:21.250Z,35.77
2023-02-11T05:09:47.915Z,35.60
2023-02-11T05:12:15.052Z,33.73
2023-02-11T05:14:41.986Z,35.83
2023-02-11T05:17:11.737Z,39.93
2023-02-11T05:19:38.614Z,36.20
2023-02-11T05:22:05.297Z,38.50
2023-02-11T05:24:32.600Z,40.17
2023-02-11T05:26:59.740Z,37.50
2023-02-11T05:29:26.467Z,38.47
2023-02-11T05:31:53.413Z,30.83
2023-02-11T05:34:20.460Z,32.37
2023-02-11T05:36:47.195Z,34.93
2023-02-11T05:39:13.939Z,38.13
2023-02-11T05:41:40.650Z,32.27
2023-02-11T05:44:07.344Z,36.47
2023-02-11T05:46:34.196Z,34.77
2023-02-11T05:49:00.976Z,34.83
2023-02-11T05:51:27.878Z,36.37
2023-02-11T05:53:54.676Z,31.73
2023-02-11T05:56:21.511Z,32.77
2023-02-11T05:58:48.318Z,33.77
2023-02-11T06:01:15.080Z,34.27
2023-02-11T06:03:42.086Z,36.53
2023-02-11T06:06:13.084Z,36.37
2023-02-11T06:08:40.119Z,33.50
2023-02-11T06:11:06.914Z,34.00
2023-02-11T06:13:33.620Z,33.60
2023-02-11T06:16:01.266Z,35.03
2023-02-11T06:18:28.749Z,33.87
2023-02-11T06:20:55.912Z,35.80
2023-02-11T06:23:22.950Z,37.87
2023-02-11T06:25:50.184Z,32.83
2023-02-11T06:28:17.164Z,36.90
2023-02-11T06:30:43.810Z,34.37
2023-02-11T06:33:10.611Z,35.60
2023-02-11T06:35:40.477Z,34.73
2023-02-11T06:38:07.315Z,32.87
2023-02-11T06:40:34.010Z,34.53
2023-02-11T06:43:00.598Z,33.43
2023-02-11T06:45:27.187Z,33.53
2023-02-11T06:47:53.807Z,33.97
2023-02-11T06:50:20.618Z,36.30
2023-02-11T06:52:47.221Z,35.47
2023-02-11T06:55:13.891Z,33.37
2023-02-11T06:57:40.482Z,35.00
2023-02-11T07:00:07.711Z,34.87
2023-02-11T07:02:34.267Z,33.23
2023-02-11T07:05:00.841Z,32.10
2023-02-11T07:07:27.628Z,33.17
2023-02-11T07:09:54.214Z,34.13
2023-02-11T07:12:20.809Z,33.33
2023-02-11T07:14:47.361Z,35.63
2023-02-11T07:17:14.289Z,30.37
2023-02-11T07:19:41.043Z,32.70
2023-02-11T07:22:07.654Z,32.90
2023-02-11T07:24:34.307Z,31.30
2023-02-11T07:27:00.958Z,34.40
2023-02-11T07:29:27.692Z,30.50
2023-02-11T07:31:54.437Z,30.43
2023-02-11T07:34:21.093Z,32.47
2023-02-11T07:36:49.060Z,33.60
2023-02-11T07:39:16.077Z,33.37
2023-02-11T07:41:44.477Z,34.27
2023-02-11T07:44:11.035Z,33.23
2023-02-11T07:46:37.647Z,33.73
2023-02-11T07:49:04.316Z,32.00
2023-02-11T07:51:31.514Z,30.97
2023-02-11T07:53:59.706Z,31.20
2023-02-11T07:56:26.850Z,32.27
2023-02-11T07:58:54.946Z,37.43
2023-02-11T08:01:25.465Z,30.03
2023-02-11T08:03:52.465Z,38.47
2023-02-11T08:06:20.701Z,31.63
2023-02-11T08:08:47.918Z,33.03
2023-02-11T08:11:20.399Z,35.23
2023-02-11T08:13:47.636Z,30.80
2023-02-11T08:16:27.180Z,29.83
2023-02-11T08:18:57.659Z,35.87
2023-02-11T08:21:25.167Z,31.43
2023-02-11T08:23:52.523Z,32.93
2023-02-11T08:26:23.289Z,30.83
2023-02-11T08:28:52.258Z,35.07
2023-02-11T08:31:21.989Z,36.03
2023-02-11T08:33:49.409Z,31.47
2023-02-11T08:36:20.059Z,34.67
2023-02-11T08:38:47.380Z,33.50
2023-02-11T08:41:15.154Z,34.30
2023-02-11T08:43:43.385Z,33.23
2023-02-11T08:46:13.593Z,34.87
2023-02-11T08:48:40.950Z,32.87
2023-02-11T08:51:10.411Z,35.17
2023-02-11T08:53:37.451Z,34.43
2023-02-11T08:56:04.660Z,33.40
2023-02-11T08:58:31.312Z,29.70
2023-02-11T09:00:58.439Z,34.80
2023-02-11T09:03:25.385Z,33.40
2023-02-11T09:05:53.404Z,30.53
2023-02-11T09:08:21.462Z,32.23
2023-02-11T09:10:48.802Z,34.57
2023-02-11T09:13:17.071Z,33.13
2023-02-11T09:15:47.039Z,31.67
2023-02-11T09:18:14.742Z,36.13
2023-02-11T09:20:44.836Z,31.30
2023-02-11T09:23:12.695Z,30.90
2023-02-11T09:25:41.424Z,30.27
2023-02-11T09:28:09.285Z,35.50
2023-02-11T09:30:39.649Z,31.23
2023-02-11T09:33:06.716Z,35.00
2023-02-11T09:35:35.095Z,36.13
2023-02-11T09:38:09.417Z,27.33
2023-02-11T09:40:40.611Z,31.27
2023-02-11T09:43:29.090Z,26.93
2023-02-11T09:45:56.852Z,29.03
2023-02-11T09:48:24.154Z,26.83
2023-02-11T09:50:55.826Z,30.50
2023-02-11T09:53:33.836Z,31.03
2023-02-11T09:56:15.634Z,27.90
2023-02-11T09:58:44.653Z,28.00
2023-02-11T10:01:30.245Z,27.90
2023-02-11T10:04:36.575Z,29.83
2023-02-11T10:07:19.646Z,27.27
2023-02-11T10:10:04.975Z,26.10
2023-02-11T10:12:44.314Z,27.20
2023-02-11T10:15:23.150Z,26.87
2023-02-11T10:18:26.614Z,29.13
2023-02-11T10:21:24.416Z,27.57
2023-02-11T10:23:57.165Z,25.90
2023-02-11T10:26:27.074Z,27.63
2023-02-11T10:29:01.521Z,25.67
2023-02-11T10:31:37.778Z,25.70
2023-02-11T10:34:12.208Z,27.17
2023-02-11T10:36:42.194Z,29.00
2023-02-11T10:39:16.117Z,24.67
2023-02-11T10:42:01.006Z,27.40
2023-02-11T10:44:53.358Z,27.83
2023-02-11T10:47:37.973Z,28.00
2023-02-11T10:50:28.703Z,26.67
2023-02-11T10:53:39.826Z,32.70
2023-02-11T10:56:41.251Z,26.93
2023-02-11T11:00:35.340Z,26.83
2023-02-11T11:04:12.293Z,33.57
2023-02-11T11:14:18.544Z,23.43
2023-02-11T11:17:33.887Z,23.93
2023-02-11T11:20:32.237Z,23.47
2023-02-11T11:23:15.951Z,24.17
2023-02-11T11:26:13.697Z,16.80
2023-02-11T11:37:26.308Z,20.33
2023-02-11T11:40:14.218Z,22.20
2023-02-11T11:42:44.895Z,20.73
2023-02-11T11:45:23.103Z,18.50
2023-02-11T11:47:57.467Z,18.60
2023-02-11T11:50:42.817Z,22.20
2023-02-11T11:53:20.867Z,20.20
2023-02-11T11:55:53.622Z,21.43
2023-02-11T11:58:22.961Z,19.33
2023-02-11T12:01:11.966Z,21.80
2023-02-11T12:04:02.564Z,21.17
2023-02-11T12:07:12.463Z,20.43
2023-02-11T12:09:45.162Z,20.53
2023-02-11T12:12:34.178Z,18.73
2023-02-11T12:15:28.875Z,19.47
2023-02-11T12:18:17.173Z,18.53
2023-02-11T12:20:52.180Z,16.53
2023-02-11T12:23:37.603Z,17.97
2023-02-11T12:26:24.330Z,16.30
2023-02-11T12:29:07.468Z,20.30
2023-02-11T12:31:59.094Z,20.40
2023-02-11T12:34:50.713Z,18.23
2023-02-11T12:37:51.473Z,21.27
2023-02-11T12:40:22.294Z,17.93
2023-02-11T12:43:25.802Z,19.33
2023-02-11T12:46:02.558Z,16.27
2023-02-11T12:48:49.660Z,19.33
2023-02-11T12:51:34.815Z,19.73
2023-02-11T12:54:18.308Z,21.30
2023-02-11T12:56:55.506Z,17.37
2023-02-11T12:59:35.040Z,17.67
2023-02-11T13:02:06.731Z,20.47
2023-02-11T13:04:39.012Z,22.57
2023-02-11T13:07:21.591Z,17.80
2023-02-11T13:10:09.296Z,18.27
2023-02-11T13:12:55.438Z,20.23
2023-02-11T13:15:22.130Z,21.93
2023-02-11T13:18:19.840Z,17.67
2023-02-11T13:21:16.292Z,18.47
2023-02-11T13:23:56.891Z,20.73
2023-02-11T13:26:42.388Z,21.03
2023-02-11T13:29:45.716Z,17.77
2023-02-11T13:32:14.949Z,18.57
2023-02-11T13:34:41.437Z,16.67
2023-02-11T13:37:23.424Z,15.93
2023-02-11T13:40:02.135Z,19.67
2023-02-11T13:42:30.921Z,19.53
2023-02-11T13:44:57.891Z,17.63
2023-02-11T13:47:33.781Z,17.30
2023-02-11T13:50:02.969Z,17.27
2023-02-11T13:52:37.606Z,17.70
2023-02-11T13:55:22.448Z,21.17
2023-02-11T13:58:27.906Z,18.47
2023-02-11T14:01:04.811Z,16.70
2023-02-11T14:03:56.516Z,18.30
2023-02-11T14:07:07.218Z,19.87
2023-02-11T14:09:37.564Z,17.77
2023-02-11T14:12:21.816Z,19.40
2023-02-11T14:15:18.287Z,18.20
2023-02-11T14:17:45.045Z,19.13
2023-02-11T14:20:36.963Z,19.67
2023-02-11T14:23:05.039Z,19.33
2023-02-11T14:25:32.384Z,18.27
2023-02-11T14:28:10.567Z,20.53
2023-02-11T14:31:10.843Z,18.17
2023-02-11T14:33:59.091Z,18.90
2023-02-11T14:36:48.115Z,23.20
2023-02-11T14:39:39.472Z,19.47
2023-02-11T14:42:19.247Z,19.53
2023-02-11T14:44:53.003Z,23.47
2023-02-11T14:47:26.124Z,23.37
2023-02-11T14:49:55.909Z,18.00
2023-02-11T14:52:37.393Z,14.60
2023-02-11T14:55:23.073Z,15.50
2023-02-11T14:58:15.618Z,14.77
2023-02-11T15:00:50.717Z,15.57
2023-02-11T15:03:33.065Z,13.63
2023-02-11T15:06:18.736Z,14.80
2023-02-11T15:08:51.741Z,17.30
2023-02-11T15:11:24.929Z,13.70
2023-02-11T15:14:07.645Z,16.57
2023-02-11T15:16:40.198Z,13.30
2023-02-11T15:19:11.024Z,18.00
2023-02-11T15:21:37.901Z,15.33
2023-02-11T15:24:26.020Z,18.80
2023-02-11T15:27:21.126Z,18.17
2023-02-11T15:29:50.738Z,17.37
2023-02-11T15:32:23.230Z,21.53
2023-02-11T15:34:53.160Z,18.77
2023-02-11T15:37:23.566Z,20.53
2023-02-11T15:39:55.028Z,19.27
2023-02-11T15:42:24.818Z,24.97
2023-02-11T15:45:17.188Z,21.07
2023-02-11T15:47:53.772Z,21.97
2023-02-11T15:50:23.624Z,20.13
2023-02-11T15:52:52.466Z,19.37
2023-02-11T15:55:21.049Z,18.73
2023-02-11T15:58:01.626Z,16.93
2023-02-11T16:00:36.633Z,18.70
2023-02-11T16:03:13.726Z,18.33
2023-02-11T16:05:43.934Z,18.70
2023-02-11T16:11:41.365Z,18.00
2023-02-11T16:15:02.242Z,17.97
2023-02-11T16:17:35.825Z,18.53
2023-02-11T16:23:45.308Z,18.93
2023-02-11T16:26:42.773Z,19.90
2023-02-11T16:36:15.346Z,22.60
2023-02-11T16:42:26.603Z,18.03
2023-02-11T16:45:39.984Z,16.63
2023-02-11T16:48:44.662Z,19.43
2023-02-11T16:51:17.951Z,18.77
2023-02-11T16:53:59.856Z,18.00
2023-02-11T16:56:32.952Z,16.73
2023-02-11T16:59:03.576Z,16.10
2023-02-11T17:01:30.988Z,16.47
2023-02-11T17:07:56.467Z,17.20
2023-02-11T17:16:54.795Z,18.27
2023-02-11T17:19:28.186Z,21.60
2023-02-11T17:21:58.714Z,19.73
2023-02-11T17:24:28.939Z,18.17
2023-02-11T17:26:59.341Z,15.93
2023-02-11T17:29:34.194Z,18.77
2023-02-11T17:32:16.419Z,21.00
2023-02-11T17:38:59.142Z,17.30
2023-02-11T17:43:02.454Z,22.00
2023-02-11T17:52:48.901Z,18.23
2023-02-11T18:06:18.582Z,21.67
2023-02-11T18:09:16.470Z,17.60
2023-02-11T18:18:17.039Z,44.00
2023-02-11T18:20:48.390Z,66.67
2023-02-11T18:23:21.824Z,21.57
2023-02-11T18:25:49.059Z,22.00
2023-02-11T18:28:16.065Z,23.50
2023-02-11T18:30:51.853Z,22.47
2023-02-11T18:34:05.464Z,25.77
2023-02-11T18:36:41.845Z,25.40
2023-02-11T18:39:23.229Z,24.57
2023-02-11T18:41:54.689Z,25.33
2023-02-11T18:44:24.096Z,24.97
2023-02-11T18:47:00.451Z,31.07
2023-02-11T18:49:39.383Z,29.90
2023-02-11T18:52:22.295Z,29.23
2023-02-11T18:57:47.936Z,24.80
2023-02-11T19:00:21.230Z,28.83
2023-02-11T19:02:48.497Z,23.90
2023-02-11T19:05:33.519Z,31.67
2023-02-11T19:08:44.938Z,28.67
2023-02-11T19:14:56.755Z,45.27
2023-02-11T19:17:32.756Z,24.93
2023-02-11T19:20:00.464Z,30.63
2023-02-11T19:22:33.360Z,24.27
2023-02-11T19:25:00.727Z,25.47
2023-02-11T19:27:30.834Z,22.67
2023-02-11T19:30:00.868Z,26.40
2023-02-11T19:32:33.055Z,21.23
2023-02-11T19:35:04.439Z,21.67
2023-02-11T19:37:31.736Z,21.73
2023-02-11T19:39:58.879Z,21.13
2023-02-11T19:42:27.752Z,22.37
2023-02-11T19:44:54.940Z,23.40
2023-02-11T19:47:27.910Z,24.97
2023-02-11T19:49:55.362Z,24.33
2023-02-11T19:52:22.831Z,23.47
2023-02-11T19:54:50.283Z,24.53
2023-02-11T19:57:17.642Z,27.77
2023-02-11T19:59:44.999Z,30.10
2023-02-11T20:02:13.299Z,27.33
2023-02-11T20:04:43.560Z,23.73
2023-02-11T20:07:10.412Z,21.27
2023-02-11T20:09:37.307Z,22.83
2023-02-11T20:12:04.429Z,22.07
2023-02-11T20:14:31.758Z,18.40
2023-02-11T20:16:58.887Z,20.17
2023-02-11T20:19:33.153Z,18.33
2023-02-11T20:22:06.033Z,21.13
2023-02-11T20:24:36.673Z,23.03
2023-02-11T20:27:15.325Z,22.47
2023-02-11T20:30:14.825Z,25.80
2023-02-11T20:33:08.164Z,20.00
2023-02-11T20:35:43.295Z,22.20
2023-02-11T20:38:10.243Z,24.33
2023-02-11T20:40:49.232Z,26.73
2023-02-11T20:43:19.598Z,25.23
2023-02-11T20:45:47.175Z,23.83
2023-02-11T20:48:20.224Z,24.23
2023-02-11T20:53:48.238Z,21.93
2023-02-11T20:59:32.902Z,20.80
2023-02-11T21:02:00.558Z,20.13
2023-02-11T21:04:39.375Z,23.87
2023-02-11T21:07:24.781Z,21.23
2023-02-11T21:09:59.521Z,21.40
2023-02-11T21:12:43.051Z,23.17
2023-02-11T21:15:16.448Z,22.20
2023-02-11T21:18:07.045Z,21.80
2023-02-11T21:20:37.669Z,22.67
2023-02-11T21:26:48.991Z,22.93
2023-02-11T21:29:24.944Z,20.60
2023-02-11T21:32:05.954Z,22.43
2023-02-11T21:34:47.921Z,21.37
2023-02-11T21:40:39.572Z,21.87
2023-02-11T21:46:20.643Z,23.60
2023-02-11T21:49:00.618Z,20.87
2023-02-11T21:51:42.823Z,19.60
2023-02-11T21:54:54.005Z,19.70
2023-02-11T21:57:31.708Z,22.03
2023-02-11T22:00:05.828Z,23.33
2023-02-11T22:02:53.753Z,23.57
2023-02-11T22:05:42.740Z,25.93
2023-02-11T22:08:16.380Z,25.90
2023-02-11T22:10:45.592Z,21.67
2023-02-11T22:13:18.590Z,22.80
2023-02-11T22:16:49.014Z,23.40
2023-02-11T22:19:29.570Z,19.97
2023-02-11T22:21:56.833Z,21.37
2023-02-11T22:24:29.852Z,21.53
2023-02-11T22:27:03.453Z,22.37
2023-02-11T22:29:47.499Z,19.80
2023-02-11T22:32:44.203Z,21.67
2023-02-11T22:35:11.280Z,20.90
2023-02-11T22:38:01.882Z,21.27
2023-02-11T22:40:46.614Z,20.47
2023-02-11T22:43:15.642Z,23.17
2023-02-11T22:45:59.491Z,22.27
2023-02-11T22:48:33.494Z,22.03
2023-02-11T22:51:06.280Z,22.40
2023-02-11T22:53:34.235Z,20.40
2023-02-11T22:56:26.176Z,23.80
2023-02-11T22:59:09.308Z,18.80
2023-02-11T23:01:37.308Z,23.30
2023-02-11T23:04:12.709Z,20.57
2023-02-11T23:06:40.160Z,18.83
2023-02-11T23:09:20.936Z,19.83
2023-02-11T23:11:49.860Z,18.60
2023-02-11T23:15:29.178Z,23.90
2023-02-11T23:18:39.942Z,21.17
2023-02-11T23:21:31.288Z,20.17
2023-02-11T23:24:02.002Z,22.53
2023-02-11T23:26:34.783Z,19.30
2023-02-11T23:29:09.102Z,20.23
2023-02-11T23:31:43.642Z,19.13
2023-02-11T23:34:11.897Z,21.17
2023-02-11T23:37:13.458Z,19.63
2023-02-11T23:39:48.096Z,25.57
2023-02-11T23:42:16.775Z,24.77
2023-02-11T23:44:43.710Z,21.40
2023-02-11T23:47:10.871Z,23.80
2023-02-11T23:49:38.291Z,22.27
2023-02-11T23:52:11.426Z,21.90
2023-02-11T23:54:38.590Z,21.90
2023-02-11T23:57:06.026Z,23.87
2023-02-11T23:59:33.298Z,22.70
